createdAt,value
2022-08-19T00:00:26.279Z,6.85
2022-08-19T00:02:54.749Z,7.35
2022-08-19T00:05:23.097Z,7.45
2022-08-19T00:07:51.002Z,7.55
2022-08-19T00:10:19.447Z,7.53
2022-08-19T00:12:47.335Z,8.00
2022-08-19T00:15:17.568Z,6.95
2022-08-19T00:17:46.240Z,7.07
2022-08-19T00:20:17.607Z,7.60
2022-08-19T00:22:46.429Z,7.57
2022-08-19T00:25:14.649Z,7.05
2022-08-19T00:27:43.284Z,7.37
2022-08-19T00:30:11.961Z,7.12
2022-08-19T00:32:39.902Z,7.65
2022-08-19T00:35:07.972Z,7.45
2022-08-19T00:37:36.195Z,7.25
2022-08-19T00:40:06.020Z,7.47
2022-08-19T00:42:33.696Z,7.12
2022-08-19T00:45:01.586Z,6.93
2022-08-19T00:47:29.112Z,7.45
2022-08-19T00:49:58.478Z,7.25
2022-08-19T00:52:32.483Z,7.68
2022-08-19T00:55:00.736Z,8.55
2022-08-19T00:57:37.157Z,7.57
2022-08-19T01:00:09.478Z,8.13
2022-08-19T01:02:37.319Z,7.40
2022-08-19T01:05:08.271Z,7.68
2022-08-19T01:07:38.070Z,7.57
2022-08-19T01:10:09.001Z,7.85
2022-08-19T01:12:37.312Z,8.30
2022-08-19T01:15:08.130Z,7.25
2022-08-19T01:17:37.772Z,7.87
2022-08-19T01:20:08.507Z,6.97
2022-08-19T01:22:50.717Z,7.82
2022-08-19T01:25:20.932Z,7.60
2022-08-19T01:27:50.549Z,7.65
2022-08-19T01:30:25.964Z,8.00
2022-08-19T01:32:55.029Z,8.00
2022-08-19T01:35:26.154Z,7.25
2022-08-19T01:38:08.684Z,7.55
2022-08-19T01:40:39.353Z,7.87
2022-08-19T01:43:07.300Z,7.93
2022-08-19T01:45:36.395Z,7.30
2022-08-19T01:48:05.124Z,6.95
2022-08-19T01:50:34.220Z,7.55
2022-08-19T01:53:06.768Z,7.50
2022-08-19T01:55:40.828Z,7.62
2022-08-19T01:58:16.180Z,7.40
2022-08-19T02:00:44.255Z,8.00
2022-08-19T02:03:12.443Z,7.25
2022-08-19T02:05:41.507Z,7.70
2022-08-19T02:08:09.806Z,7.65
2022-08-19T02:10:43.702Z,8.57
2022-08-19T02:13:13.085Z,7.50
2022-08-19T02:15:41.179Z,8.90
2022-08-19T02:18:09.389Z,7.80
2022-08-19T02:20:37.675Z,6.85
2022-08-19T02:23:06.424Z,8.23
2022-08-19T02:25:42.507Z,8.35
2022-08-19T02:28:10.329Z,8.23
2022-08-19T02:30:39.153Z,8.45
2022-08-19T02:33:06.679Z,7.60
2022-08-19T02:35:34.435Z,7.80
2022-08-19T02:38:20.549Z,7.72
2022-08-19T02:40:53.495Z,8.00
2022-08-19T02:43:21.790Z,7.68
2022-08-19T02:45:50.426Z,8.07
2022-08-19T02:48:21.921Z,7.47
2022-08-19T02:50:56.382Z,7.60
2022-08-19T02:53:26.200Z,8.18
2022-08-19T02:55:54.249Z,8.10
2022-08-19T02:58:22.802Z,7.53
2022-08-19T03:00:53.612Z,7.62
2022-08-19T03:03:21.696Z,8.80
2022-08-19T03:05:56.567Z,7.55
2022-08-19T03:08:26.843Z,7.32
2022-08-19T03:10:54.926Z,7.60
2022-08-19T03:13:22.491Z,7.78
2022-08-19T03:15:50.249Z,7.70
2022-08-19T03:18:18.346Z,8.23
2022-08-19T03:20:48.482Z,7.40
2022-08-19T03:23:17.406Z,8.15
2022-08-19T03:26:03.042Z,7.57
2022-08-19T03:28:36.148Z,7.55
2022-08-19T03:31:44.425Z,7.62
2022-08-19T03:34:00.578Z,7.97
2022-08-19T03:36:29.541Z,8.77
2022-08-19T03:39:00.137Z,8.07
2022-08-19T03:41:44.174Z,7.43
2022-08-19T03:44:19.444Z,8.13
2022-08-19T03:49:15.946Z,7.65
2022-08-19T03:51:47.629Z,7.50
2022-08-19T03:54:17.010Z,8.23
2022-08-19T03:56:45.436Z,7.68
2022-08-19T03:59:18.963Z,7.12
2022-08-19T04:01:46.965Z,8.35
2022-08-19T04:04:14.725Z,7.78
2022-08-19T04:06:42.171Z,7.95
2022-08-19T04:09:12.139Z,7.75
2022-08-19T04:11:47.905Z,7.87
2022-08-19T04:14:18.840Z,8.02
2022-08-19T04:16:47.738Z,7.35
2022-08-19T04:19:17.303Z,8.07
2022-08-19T04:21:47.334Z,7.57
2022-08-19T04:24:15.650Z,8.23
2022-08-19T04:26:43.688Z,8.05
2022-08-19T04:29:17.053Z,8.15
2022-08-19T04:31:46.472Z,7.75
2022-08-19T04:34:15.629Z,8.00
2022-08-19T04:36:45.667Z,8.45
2022-08-19T04:39:16.978Z,8.00
2022-08-19T04:42:03.687Z,8.18
2022-08-19T04:44:35.873Z,8.30
2022-08-19T04:47:10.923Z,7.93
2022-08-19T04:49:39.191Z,7.40
2022-08-19T04:52:06.669Z,8.00
2022-08-19T04:54:38.401Z,7.95
2022-08-19T04:57:10.992Z,7.68
2022-08-19T04:59:39.859Z,8.40
2022-08-19T05:02:09.679Z,8.10
2022-08-19T05:04:40.233Z,8.48
2022-08-19T05:07:08.973Z,8.38
2022-08-19T05:09:56.996Z,7.95
2022-08-19T05:12:28.824Z,7.95
2022-08-19T05:14:58.386Z,8.15
2022-08-19T05:17:29.673Z,7.68
2022-08-19T05:20:18.452Z,7.40
2022-08-19T05:22:47.913Z,7.95
2022-08-19T05:25:20.542Z,7.78
2022-08-19T05:27:48.835Z,8.02
2022-08-19T05:30:17.254Z,7.90
2022-08-19T05:32:44.812Z,8.02
2022-08-19T05:35:12.921Z,8.00
2022-08-19T05:37:41.562Z,8.38
2022-08-19T05:40:10.775Z,7.87
2022-08-19T05:42:38.902Z,7.10
2022-08-19T05:45:07.504Z,8.18
2022-08-19T05:47:36.090Z,7.32
2022-08-19T05:50:10.085Z,7.55
2022-08-19T05:52:39.319Z,8.18
2022-08-19T05:55:13.666Z,7.35
2022-08-19T05:57:41.245Z,8.00
2022-08-19T06:00:11.517Z,7.70
2022-08-19T06:02:39.608Z,7.93
2022-08-19T06:05:10.025Z,7.97
2022-08-19T06:07:39.060Z,8.32
2022-08-19T06:10:09.065Z,7.70
2022-08-19T06:12:37.343Z,7.47
2022-08-19T06:15:11.038Z,7.28
2022-08-19T06:17:39.161Z,8.00
2022-08-19T06:20:10.252Z,7.22
2022-08-19T06:22:42.404Z,7.87
2022-08-19T06:25:10.352Z,7.95
2022-08-19T06:27:48.279Z,7.60
2022-08-19T06:30:21.260Z,7.05
2022-08-19T06:32:48.751Z,6.72
2022-08-19T06:35:16.344Z,7.53
2022-08-19T06:37:45.168Z,6.87
2022-08-19T06:40:13.556Z,7.30
2022-08-19T06:42:52.288Z,7.45
2022-08-19T06:45:34.885Z,8.20
2022-08-19T06:48:03.716Z,7.15
2022-08-19T06:50:31.532Z,7.85
2022-08-19T06:53:04.365Z,7.22
2022-08-19T06:55:33.294Z,7.43
2022-08-19T06:58:05.316Z,7.30
2022-08-19T07:00:33.830Z,7.32
2022-08-19T07:03:04.468Z,7.78
2022-08-19T07:05:45.497Z,7.47
2022-08-19T07:08:14.349Z,6.75
2022-08-19T07:10:46.118Z,7.03
2022-08-19T07:13:13.972Z,7.62
2022-08-19T07:15:42.019Z,7.03
2022-08-19T07:18:11.983Z,6.57
2022-08-19T07:20:41.963Z,7.05
2022-08-19T07:23:12.042Z,7.47
2022-08-19T07:25:44.477Z,6.37
2022-08-19T07:28:14.359Z,7.22
2022-08-19T07:30:51.804Z,7.68
2022-08-19T07:33:21.659Z,6.95
2022-08-19T07:35:50.168Z,6.68
2022-08-19T07:38:18.257Z,6.95
2022-08-19T07:40:46.898Z,7.22
2022-08-19T07:43:17.009Z,6.90
2022-08-19T07:45:46.316Z,6.75
2022-08-19T07:48:15.419Z,6.60
2022-08-19T07:50:43.044Z,6.53
2022-08-19T07:53:11.060Z,6.65
2022-08-19T07:55:40.428Z,6.57
2022-08-19T07:58:14.856Z,7.07
2022-08-19T08:00:43.928Z,6.25
2022-08-19T08:03:11.948Z,7.00
2022-08-19T08:05:58.479Z,6.43
2022-08-19T08:08:32.679Z,6.90
2022-08-19T08:11:01.150Z,6.72
2022-08-19T08:13:29.085Z,6.15
2022-08-19T08:15:57.833Z,6.35
2022-08-19T08:18:27.907Z,6.53
2022-08-19T08:20:58.985Z,6.68
2022-08-19T08:23:27.525Z,6.50
2022-08-19T08:25:58.143Z,6.45
2022-08-19T08:28:29.679Z,6.28
2022-08-19T08:30:58.443Z,6.00
2022-08-19T08:33:34.044Z,5.72
2022-08-19T08:36:05.618Z,6.00
2022-08-19T08:38:39.815Z,5.90
2022-08-19T08:41:50.215Z,6.30
2022-08-19T08:44:41.238Z,5.60
2022-08-19T08:47:16.696Z,6.10
2022-08-19T08:50:08.214Z,5.78
2022-08-19T08:52:43.601Z,5.70
2022-08-19T08:55:17.314Z,5.78
2022-08-19T08:57:55.661Z,5.85
2022-08-19T09:00:41.270Z,5.53
2022-08-19T09:03:18.050Z,5.90
2022-08-19T09:06:04.862Z,6.45
2022-08-19T09:08:58.620Z,5.57
2022-08-19T09:12:06.223Z,5.43
2022-08-19T09:14:54.258Z,5.70
2022-08-19T09:17:28.446Z,5.45
2022-08-19T09:20:09.076Z,5.12
2022-08-19T09:22:38.889Z,5.93
2022-08-19T09:25:08.924Z,5.57
2022-08-19T09:27:42.911Z,5.15
2022-08-19T09:30:18.552Z,5.47
2022-08-19T09:32:46.852Z,5.22
2022-08-19T09:35:28.323Z,5.40
2022-08-19T09:37:59.584Z,5.15
2022-08-19T09:40:30.009Z,4.95
2022-08-19T09:42:58.730Z,5.95
2022-08-19T09:45:26.279Z,5.12
2022-08-19T09:47:55.326Z,5.85
2022-08-19T09:50:24.623Z,6.28
2022-08-19T09:52:57.024Z,5.57
2022-08-19T09:55:31.971Z,5.83
2022-08-19T09:58:03.323Z,5.20
2022-08-19T10:00:32.021Z,5.90
2022-08-19T10:03:00.137Z,5.85
2022-08-19T10:05:48.637Z,6.07
2022-08-19T10:08:18.865Z,5.47
2022-08-19T10:10:49.417Z,5.60
2022-08-19T10:13:22.926Z,5.43
2022-08-19T10:15:51.670Z,5.80
2022-08-19T10:18:21.456Z,5.80
2022-08-19T10:20:51.608Z,5.22
2022-08-19T10:23:21.245Z,6.05
2022-08-19T10:25:49.653Z,5.55
2022-08-19T10:28:19.494Z,5.37
2022-08-19T10:30:48.530Z,5.35
2022-08-19T10:33:38.592Z,5.78
2022-08-19T10:36:10.706Z,5.55
2022-08-19T10:38:38.602Z,5.68
2022-08-19T10:41:15.856Z,5.65
2022-08-19T10:43:45.952Z,5.30
2022-08-19T10:46:16.728Z,5.50
2022-08-19T10:48:45.893Z,5.18
2022-08-19T10:51:32.481Z,5.28
2022-08-19T10:54:00.688Z,5.28
2022-08-19T10:56:48.003Z,5.45
2022-08-19T10:59:16.229Z,6.20
2022-08-19T11:01:45.669Z,5.22
2022-08-19T11:04:14.624Z,5.37
2022-08-19T11:06:44.462Z,6.03
2022-08-19T11:09:12.683Z,5.30
2022-08-19T11:11:42.389Z,6.20
2022-08-19T11:14:15.745Z,7.87
2022-08-19T11:16:43.734Z,9.05
2022-08-19T11:19:12.669Z,10.10
2022-08-19T11:21:43.295Z,10.10
2022-08-19T11:24:14.266Z,11.05
2022-08-19T11:26:45.201Z,11.35
2022-08-19T11:29:14.325Z,11.05
2022-08-19T11:31:45.070Z,11.93
2022-08-19T11:34:17.215Z,12.85
2022-08-19T11:36:46.500Z,14.20
2022-08-19T11:39:17.574Z,12.80
2022-08-19T11:41:45.540Z,11.65
2022-08-19T11:44:15.074Z,11.18
2022-08-19T11:46:47.081Z,10.45
2022-08-19T11:49:16.135Z,10.18
2022-08-19T11:51:44.340Z,9.82
2022-08-19T11:54:14.251Z,9.98
2022-08-19T11:56:42.514Z,10.70
2022-08-19T11:59:14.640Z,12.18
2022-08-19T12:01:43.694Z,12.30
2022-08-19T12:04:11.997Z,11.98
2022-08-19T12:06:40.946Z,13.57
2022-08-19T12:09:10.674Z,13.98
2022-08-19T12:11:39.515Z,12.27
2022-08-19T12:14:07.598Z,13.18
2022-08-19T12:16:37.739Z,12.52
2022-08-19T12:19:08.011Z,11.60
2022-08-19T12:21:36.534Z,11.32
2022-08-19T12:24:07.222Z,11.50
2022-08-19T12:26:35.960Z,10.77
2022-08-19T12:29:23.349Z,10.10
2022-08-19T12:31:52.427Z,9.23
2022-08-19T12:34:21.180Z,8.20
2022-08-19T12:36:50.426Z,9.15
2022-08-19T12:39:18.381Z,9.07
2022-08-19T12:41:51.498Z,8.65
2022-08-19T12:44:28.744Z,7.05
2022-08-19T12:46:58.103Z,4.93
2022-08-19T12:49:32.146Z,5.95
2022-08-19T12:52:16.898Z,4.70
2022-08-19T12:54:54.572Z,4.18
2022-08-19T12:57:31.503Z,4.90
2022-08-19T13:00:11.689Z,5.32
2022-08-19T13:02:47.601Z,5.37
2022-08-19T13:05:17.593Z,4.60
2022-08-19T13:07:45.237Z,4.07
2022-08-19T13:10:16.403Z,4.18
2022-08-19T13:12:45.676Z,4.45
2022-08-19T13:15:15.224Z,4.90
2022-08-19T13:17:43.151Z,4.10
2022-08-19T13:20:11.700Z,4.47
2022-08-19T13:22:39.600Z,4.60
2022-08-19T13:25:07.972Z,4.30
2022-08-19T13:27:36.924Z,3.83
2022-08-19T13:30:24.099Z,4.22
2022-08-19T13:33:10.189Z,5.50
2022-08-19T13:35:47.766Z,4.90
2022-08-19T13:38:21.507Z,5.30
2022-08-19T13:40:51.349Z,5.95
2022-08-19T13:43:23.343Z,7.72
2022-08-19T13:45:54.805Z,4.72
2022-08-19T13:48:23.421Z,4.00
2022-08-19T13:50:50.940Z,4.97
2022-08-19T13:53:18.687Z,6.05
2022-08-19T13:55:46.622Z,5.65
2022-08-19T13:58:14.509Z,6.47
2022-08-19T14:00:45.095Z,4.85
2022-08-19T14:03:13.115Z,4.30
2022-08-19T14:05:40.857Z,4.00
2022-08-19T14:08:08.364Z,4.32
2022-08-19T14:10:36.185Z,3.97
2022-08-19T14:13:04.513Z,4.50
2022-08-19T14:15:32.480Z,4.20
2022-08-19T14:18:00.588Z,4.32
2022-08-19T14:20:28.150Z,4.37
2022-08-19T14:22:56.696Z,4.32
2022-08-19T14:25:27.046Z,4.10
2022-08-19T14:27:55.112Z,3.58
2022-08-19T14:30:31.815Z,3.62
2022-08-19T14:33:01.150Z,2.42
2022-08-19T14:35:30.418Z,3.55
2022-08-19T14:37:58.929Z,3.00
2022-08-19T14:40:29.093Z,2.95
2022-08-19T14:43:04.750Z,2.95
2022-08-19T14:45:35.704Z,2.92
2022-08-19T14:48:06.084Z,3.17
2022-08-19T14:50:35.492Z,2.83
2022-08-19T14:53:11.903Z,3.25
2022-08-19T14:55:45.849Z,4.10
2022-08-19T14:58:28.593Z,2.78
2022-08-19T15:03:26.995Z,3.37
2022-08-19T15:05:54.741Z,2.78
2022-08-19T15:08:23.501Z,2.70
2022-08-19T15:10:51.115Z,3.08
2022-08-19T15:13:19.056Z,2.45
2022-08-19T15:15:48.379Z,3.15
2022-08-19T15:18:15.920Z,2.50
2022-08-19T15:20:44.506Z,3.12
2022-08-19T15:23:16.134Z,3.08
2022-08-19T15:25:44.411Z,3.17
2022-08-19T15:28:12.508Z,2.78
2022-08-19T15:30:41.309Z,2.80
2022-08-19T15:33:08.842Z,2.78
2022-08-19T15:35:36.368Z,2.83
2022-08-19T15:38:04.209Z,3.37
2022-08-19T15:40:31.889Z,3.00
2022-08-19T15:42:59.441Z,2.90
2022-08-19T15:45:32.577Z,3.60
2022-08-19T15:48:01.332Z,2.95
2022-08-19T15:50:31.982Z,3.15
2022-08-19T15:53:09.276Z,3.12
2022-08-19T15:55:44.060Z,3.20
2022-08-19T15:58:32.019Z,4.07
2022-08-19T16:01:26.983Z,3.17
2022-08-19T16:04:15.615Z,3.42
2022-08-19T16:06:49.276Z,3.62
2022-08-19T16:09:18.189Z,3.75
2022-08-19T16:11:56.509Z,3.47
2022-08-19T16:14:25.534Z,3.58
2022-08-19T16:16:55.571Z,3.45
2022-08-19T16:19:24.437Z,3.70
2022-08-19T16:21:54.807Z,3.22
2022-08-19T16:24:24.535Z,4.28
2022-08-19T16:26:52.405Z,3.55
2022-08-19T16:29:33.304Z,3.70
2022-08-19T16:32:09.995Z,3.10
2022-08-19T16:34:38.795Z,4.57
2022-08-19T16:37:06.599Z,3.53
2022-08-19T16:39:34.258Z,3.87
2022-08-19T16:42:02.133Z,3.08
2022-08-19T16:44:30.213Z,3.95
2022-08-19T16:46:59.647Z,4.00
2022-08-19T16:49:53.779Z,4.55
2022-08-19T16:52:17.114Z,3.70
2022-08-19T16:54:44.938Z,3.95
2022-08-19T16:57:13.089Z,4.62
2022-08-19T16:59:42.602Z,4.03
2022-08-19T17:02:21.935Z,3.90
2022-08-19T17:04:57.243Z,5.25
2022-08-19T17:07:33.027Z,3.17
2022-08-19T17:10:04.111Z,3.87
2022-08-19T17:12:32.516Z,3.35
2022-08-19T17:15:04.989Z,3.60
2022-08-19T17:17:33.476Z,3.83
2022-08-19T17:20:02.862Z,4.20
2022-08-19T17:22:30.481Z,4.40
2022-08-19T17:24:58.722Z,3.47
2022-08-19T17:27:32.248Z,4.28
2022-08-19T17:30:05.208Z,3.90
2022-08-19T17:32:34.906Z,4.53
2022-08-19T17:35:04.234Z,3.28
2022-08-19T17:37:32.409Z,4.47
2022-08-19T17:40:02.056Z,3.90
2022-08-19T17:42:29.987Z,4.12
2022-08-19T17:45:00.816Z,3.72
2022-08-19T17:47:29.138Z,3.60
2022-08-19T17:49:57.859Z,4.50
2022-08-19T17:52:25.798Z,3.87
2022-08-19T17:54:53.466Z,3.87
2022-08-19T17:57:21.551Z,3.47
2022-08-19T17:59:49.535Z,3.50
2022-08-19T18:02:21.424Z,3.95
2022-08-19T18:04:50.297Z,4.18
2022-08-19T18:07:21.492Z,4.20
2022-08-19T18:09:51.989Z,5.10
2022-08-19T18:12:26.949Z,4.75
2022-08-19T18:14:55.763Z,2.97
2022-08-19T18:17:24.514Z,5.50
2022-08-19T18:19:52.191Z,6.22
2022-08-19T18:22:33.977Z,4.03
2022-08-19T18:25:08.168Z,5.62
2022-08-19T18:27:36.026Z,3.60
2022-08-19T18:30:06.448Z,3.97
2022-08-19T18:32:34.716Z,3.62
2022-08-19T18:35:04.222Z,4.53
2022-08-19T18:37:32.017Z,5.65
2022-08-19T18:40:35.200Z,4.80
2022-08-19T18:43:22.552Z,4.30
2022-08-19T18:46:09.602Z,4.07
2022-08-19T18:48:57.403Z,5.03
2022-08-19T18:51:28.403Z,6.40
2022-08-19T18:53:58.868Z,5.93
2022-08-19T18:56:31.700Z,5.43
2022-08-19T18:59:00.382Z,6.60
2022-08-19T19:01:36.834Z,7.20
2022-08-19T19:04:12.139Z,7.53
2022-08-19T19:06:42.592Z,6.10
2022-08-19T19:09:13.665Z,5.62
2022-08-19T19:11:46.614Z,6.30
2022-08-19T19:14:32.705Z,7.68
2022-08-19T19:17:08.218Z,6.65
2022-08-19T19:19:36.009Z,8.10
2022-08-19T19:22:04.629Z,7.15
2022-08-19T19:24:33.366Z,6.00
2022-08-19T19:27:06.690Z,5.35
2022-08-19T19:29:36.737Z,6.60
2022-08-19T19:32:22.903Z,5.93
2022-08-19T19:34:51.155Z,6.65
2022-08-19T19:37:19.243Z,6.40
2022-08-19T19:39:49.658Z,5.53
2022-08-19T19:42:20.984Z,5.32
2022-08-19T19:44:51.959Z,5.22
2022-08-19T19:47:21.407Z,5.78
2022-08-19T19:50:13.178Z,5.43
2022-08-19T19:52:41.306Z,4.80
2022-08-19T19:55:15.652Z,5.28
2022-08-19T19:57:45.154Z,4.80
2022-08-19T20:00:15.427Z,4.35
2022-08-19T20:02:49.870Z,3.83
2022-08-19T20:05:20.898Z,4.78
2022-08-19T20:08:08.391Z,4.72
2022-08-19T20:10:36.671Z,4.55
2022-08-19T20:13:04.938Z,5.65
2022-08-19T20:15:32.677Z,6.28
2022-08-19T20:18:00.963Z,5.65
2022-08-19T20:20:28.740Z,6.93
2022-08-19T20:22:56.263Z,6.15
2022-08-19T20:25:24.307Z,6.32
2022-08-19T20:27:52.150Z,6.70
2022-08-19T20:30:21.212Z,5.03
2022-08-19T20:32:50.804Z,8.55
2022-08-19T20:35:20.730Z,8.80
2022-08-19T20:37:48.429Z,7.07
2022-08-19T20:40:20.561Z,5.72
2022-08-19T20:42:50.713Z,9.32
2022-08-19T20:45:32.609Z,8.07
2022-08-19T20:48:04.289Z,7.65
2022-08-19T20:50:35.839Z,8.40
2022-08-19T20:53:16.261Z,10.55
2022-08-19T20:55:45.545Z,9.70
2022-08-19T20:58:14.038Z,10.80
2022-08-19T21:00:45.911Z,9.55
2022-08-19T21:03:18.849Z,9.88
2022-08-19T21:05:48.988Z,10.15
2022-08-19T21:08:19.967Z,9.90
2022-08-19T21:10:49.206Z,10.30
2022-08-19T21:13:18.461Z,10.43
2022-08-19T21:15:46.936Z,10.70
2022-08-19T21:18:16.959Z,10.25
2022-08-19T21:20:45.397Z,9.50
2022-08-19T21:23:16.762Z,10.07
2022-08-19T21:25:51.695Z,10.07
2022-08-19T21:28:29.886Z,10.05
2022-08-19T21:31:05.843Z,10.23
2022-08-19T21:33:33.811Z,9.05
2022-08-19T21:36:01.387Z,9.98
2022-08-19T21:38:29.017Z,8.57
2022-08-19T21:40:57.030Z,9.93
2022-08-19T21:43:24.683Z,8.98
2022-08-19T21:45:52.170Z,8.88
2022-08-19T21:48:19.943Z,8.52
2022-08-19T21:50:48.547Z,8.02
2022-08-19T21:53:17.627Z,8.57
2022-08-19T21:55:52.845Z,8.43
2022-08-19T21:58:28.800Z,7.93
2022-08-19T22:00:59.601Z,8.40
2022-08-19T22:03:27.743Z,8.35
2022-08-19T22:05:55.247Z,8.75
2022-08-19T22:08:22.771Z,8.55
2022-08-19T22:10:51.060Z,7.80
2022-08-19T22:13:20.591Z,8.65
2022-08-19T22:15:50.405Z,8.60
2022-08-19T22:18:18.963Z,7.90
2022-08-19T22:20:47.920Z,8.50
2022-08-19T22:23:15.555Z,8.57
2022-08-19T22:25:45.537Z,9.18
2022-08-19T22:28:15.047Z,8.38
2022-08-19T22:30:51.113Z,8.13
2022-08-19T22:33:20.697Z,8.13
2022-08-19T22:35:48.946Z,8.85
2022-08-19T22:38:16.504Z,8.27
2022-08-19T22:40:47.373Z,7.85
2022-08-19T22:43:20.455Z,7.53
2022-08-19T22:45:49.546Z,7.95
2022-08-19T22:48:20.613Z,7.85
2022-08-19T22:51:07.929Z,7.57
2022-08-19T22:53:38.041Z,7.60
2022-08-19T22:56:09.929Z,7.68
2022-08-19T22:58:40.914Z,7.22
2022-08-19T23:01:08.487Z,7.15
2022-08-19T23:03:36.026Z,7.20
2022-08-19T23:06:03.979Z,6.50
2022-08-19T23:08:31.635Z,6.65
2022-08-19T23:10:59.425Z,6.53
2022-08-19T23:13:27.460Z,6.30
2022-08-19T23:15:54.934Z,6.55
2022-08-19T23:18:22.684Z,6.82
2022-08-19T23:20:53.092Z,6.82
2022-08-19T23:23:24.822Z,6.55
2022-08-19T23:25:54.401Z,6.12
2022-08-19T23:28:41.430Z,7.28
2022-08-19T23:31:09.354Z,6.30
2022-08-19T23:33:46.779Z,5.90
2022-08-19T23:36:20.291Z,5.72
2022-08-19T23:38:49.169Z,6.30
2022-08-19T23:41:18.717Z,5.60
2022-08-19T23:43:46.551Z,6.25
2022-08-19T23:46:28.289Z,5.75
2022-08-19T23:48:57.110Z,6.32
2022-08-19T23:51:26.801Z,5.75
2022-08-19T23:53:54.419Z,5.35
2022-08-19T23:56:22.188Z,4.82
2022-08-19T23:58:49.748Z,5.93
